Duvernay, Canada
Current Conditions -  °F | °C
As of 12:00 AM on Thursday 27 Nov 2014 (Local Time) from CYUL Reporting Station
Overcast Overcast  
Wind Chill: 19°   Ceiling: 7500
Heat Index: 30°   Visibility: 15mi
Dew Point: 19°   Wind: 15mph
Humidity: 64%   Direction: 10°N
Pressure: 30.02"   Gusts: NA
Location:  45.57°N, 73.85°W
Report Text: CYUL 270500Z 01013KT 15SM OVC075 M01/M07 A3002 RMK AS8 SLP168
Loading
Personal Weather Stations






























Interactive Weather Map New forecast layout! Learn more

10-Day Weather Forecast

Advertisements
Track Severe Weather on mobile